sensor_id;sensor_type;location;lat;lon;timestamp;pressure;altitude;pressure_sealevel;temperature;humidity
39265;BME280;42646;51.910;7.724;2023-02-12T00:00:16;103116.41;;;8.26;100.00
39265;BME280;42646;51.910;7.724;2023-02-12T00:02:44;103112.84;;;8.27;100.00
39265;BME280;42646;51.910;7.724;2023-02-12T00:05:14;103110.25;;;8.26;100.00
39265;BME280;42646;51.910;7.724;2023-02-12T00:07:42;103111.09;;;8.26;100.00
39265;BME280;42646;51.910;7.724;2023-02-12T00:10:11;103120.00;;;8.25;100.00
39265;BME280;42646;51.910;7.724;2023-02-12T00:12:39;103113.75;;;8.26;100.00
39265;BME280;42646;51.910;7.724;2023-02-12T00:15:08;103109.41;;;8.25;100.00
39265;BME280;42646;51.910;7.724;2023-02-12T00:17:35;103103.25;;;8.23;100.00
39265;BME280;42646;51.910;7.724;2023-02-12T00:20:04;103108.56;;;8.23;100.00
39265;BME280;42646;51.910;7.724;2023-02-12T00:22:33;103108.56;;;8.23;100.00
39265;BME280;42646;51.910;7.724;2023-02-12T00:25:01;103111.22;;;8.23;100.00
39265;BME280;42646;51.910;7.724;2023-02-12T00:27:31;103104.19;;;8.22;100.00
39265;BME280;42646;51.910;7.724;2023-02-12T00:29:59;103104.19;;;8.22;100.00
39265;BME280;42646;51.910;7.724;2023-02-12T00:32:26;103099.03;;;8.19;100.00
39265;BME280;42646;51.910;7.724;2023-02-12T00:34:54;103097.31;;;8.18;100.00
39265;BME280;42646;51.910;7.724;2023-02-12T00:37:23;103101.72;;;8.18;100.00
39265;BME280;42646;51.910;7.724;2023-02-12T00:39:53;103103.53;;;8.17;100.00
39265;BME280;42646;51.910;7.724;2023-02-12T00:42:22;103110.63;;;8.17;100.00
39265;BME280;42646;51.910;7.724;2023-02-12T00:44:49;103110.63;;;8.17;100.00
39265;BME280;42646;51.910;7.724;2023-02-12T00:47:17;103113.25;;;8.17;100.00
39265;BME280;42646;51.910;7.724;2023-02-12T00:49:48;103112.41;;;8.16;100.00
39265;BME280;42646;51.910;7.724;2023-02-12T00:52:16;103117.72;;;8.16;100.00
39265;BME280;42646;51.910;7.724;2023-02-12T00:54:48;103118.56;;;8.17;100.00
39265;BME280;42646;51.910;7.724;2023-02-12T00:57:18;103121.22;;;8.17;100.00
39265;BME280;42646;51.910;7.724;2023-02-12T00:59:48;103119.56;;;8.14;100.00
39265;BME280;42646;51.910;7.724;2023-02-12T01:02:16;103112.53;;;8.13;100.00
39265;BME280;42646;51.910;7.724;2023-02-12T01:04:45;103116.09;;;8.12;100.00
39265;BME280;42646;51.910;7.724;2023-02-12T01:07:13;103117.03;;;8.11;100.00
39265;BME280;42646;51.910;7.724;2023-02-12T01:09:42;103119.63;;;8.13;100.00
39265;BME280;42646;51.910;7.724;2023-02-12T01:12:09;103117.88;;;8.12;100.00
39265;BME280;42646;51.910;7.724;2023-02-12T01:14:39;103120.53;;;8.12;100.00
39265;BME280;42646;51.910;7.724;2023-02-12T01:17:07;103122.31;;;8.11;100.00
39265;BME280;42646;51.910;7.724;2023-02-12T01:19:34;103123.25;;;8.10;100.00
39265;BME280;42646;51.910;7.724;2023-02-12T01:22:03;103130.34;;;8.10;100.00
39265;BME280;42646;51.910;7.724;2023-02-12T01:24:33;103120.69;;;8.09;100.00
39265;BME280;42646;51.910;7.724;2023-02-12T01:27:01;103126.91;;;8.08;100.00
39265;BME280;42646;51.910;7.724;2023-02-12T01:29:29;103118.97;;;8.08;100.00
39265;BME280;42646;51.910;7.724;2023-02-12T01:32:01;103126.06;;;8.07;100.00
39265;BME280;42646;51.910;7.724;2023-02-12T01:34:29;103120.75;;;8.07;100.00
39265;BME280;42646;51.910;7.724;2023-02-12T01:36:56;103116.34;;;8.06;100.00
39265;BME280;42646;51.910;7.724;2023-02-12T01:39:24;103112.84;;;8.06;100.00
39265;BME280;42646;51.910;7.724;2023-02-12T01:41:52;103119.06;;;8.04;100.00
39265;BME280;42646;51.910;7.724;2023-02-12T01:44:21;103111.19;;;8.03;100.00
39265;BME280;42646;51.910;7.724;2023-02-12T01:46:54;103116.47;;;8.03;100.00
39265;BME280;42646;51.910;7.724;2023-02-12T01:49:27;103114.84;;;8.00;100.00
39265;BME280;42646;51.910;7.724;2023-02-12T01:52:00;103112.19;;;8.00;100.00
39265;BME280;42646;51.910;7.724;2023-02-12T01:54:29;103112.22;;;7.99;100.00
39265;BME280;42646;51.910;7.724;2023-02-12T01:56:58;103108.72;;;7.98;100.00
39265;BME280;42646;51.910;7.724;2023-02-12T01:59:27;103107.06;;;7.96;100.00
39265;BME280;42646;51.910;7.724;2023-02-12T02:01:56;103105.34;;;7.95;100.00
39265;BME280;42646;51.910;7.724;2023-02-12T02:04:28;103112.41;;;7.94;100.00
39265;BME280;42646;51.910;7.724;2023-02-12T02:06:59;103110.66;;;7.93;100.00
39265;BME280;42646;51.910;7.724;2023-02-12T02:09:30;103112.53;;;7.91;100.00
39265;BME280;42646;51.910;7.724;2023-02-12T02:12:02;103110.88;;;7.89;100.00
39265;BME280;42646;51.910;7.724;2023-02-12T02:14:52;103103.03;;;7.86;100.00
39265;BME280;42646;51.910;7.724;2023-02-12T02:17:30;103111.06;;;7.84;100.00
39265;BME280;42646;51.910;7.724;2023-02-12T02:26:37;103101.56;;;7.79;100.00
39265;BME280;42646;51.910;7.724;2023-02-12T02:29:21;103101.63;;;7.77;100.00
39265;BME280;42646;51.910;7.724;2023-02-12T02:32:02;103099.94;;;7.74;100.00
39265;BME280;42646;51.910;7.724;2023-02-12T02:34:38;103096.44;;;7.74;100.00
39265;BME280;42646;51.910;7.724;2023-02-12T02:37:14;103094.78;;;7.71;100.00
39265;BME280;42646;51.910;7.724;2023-02-12T02:39:49;103093.09;;;7.69;100.00
39265;BME280;42646;51.910;7.724;2023-02-12T02:42:24;103101.97;;;7.68;100.00
39265;BME280;42646;51.910;7.724;2023-02-12T02:44:59;103100.25;;;7.67;100.00
39265;BME280;42646;51.910;7.724;2023-02-12T02:47:32;103097.66;;;7.65;100.00
39265;BME280;42646;51.910;7.724;2023-02-12T02:50:08;103102.22;;;7.62;100.00
39265;BME280;42646;51.910;7.724;2023-02-12T02:52:47;103091.69;;;7.60;100.00
39265;BME280;42646;51.910;7.724;2023-02-12T02:55:19;103091.72;;;7.59;100.00
39265;BME280;42646;51.910;7.724;2023-02-12T02:58:13;103091.78;;;7.57;100.00
39265;BME280;42646;51.910;7.724;2023-02-12T03:00:47;103091.84;;;7.56;100.00
39265;BME280;42646;51.910;7.724;2023-02-12T03:03:24;103090.19;;;7.53;100.00
39265;BME280;42646;51.910;7.724;2023-02-12T03:05:58;103095.53;;;7.52;100.00
39265;BME280;42646;51.910;7.724;2023-02-12T03:08:33;103092.09;;;7.49;100.00
39265;BME280;42646;51.910;7.724;2023-02-12T03:11:04;103092.16;;;7.48;100.00
39265;BME280;42646;51.910;7.724;2023-02-12T03:13:37;103090.41;;;7.47;100.00
39265;BME280;42646;51.910;7.724;2023-02-12T03:16:10;103089.59;;;7.45;100.00
39265;BME280;42646;51.910;7.724;2023-02-12T03:18:47;103087.88;;;7.44;100.00
39265;BME280;42646;51.910;7.724;2023-02-12T03:21:19;103087.09;;;7.42;100.00
39265;BME280;42646;51.910;7.724;2023-02-12T03:24:19;103092.41;;;7.40;100.00
39265;BME280;42646;51.910;7.724;2023-02-12T03:26:52;103088.97;;;7.38;100.00
39265;BME280;42646;51.910;7.724;2023-02-12T03:29:26;103093.47;;;7.36;100.00
39265;BME280;42646;51.910;7.724;2023-02-12T03:32:09;103094.41;;;7.35;100.00
39265;BME280;42646;51.910;7.724;2023-02-12T03:35:09;103109.53;;;7.32;100.00
39265;BME280;42646;51.910;7.724;2023-02-12T03:37:42;103097.22;;;7.31;100.00
39265;BME280;42646;51.910;7.724;2023-02-12T03:40:16;103108.72;;;7.30;100.00
39265;BME280;42646;51.910;7.724;2023-02-12T03:42:54;103106.09;;;7.30;100.00
39265;BME280;42646;51.910;7.724;2023-02-12T03:45:35;103106.09;;;7.30;100.00
39265;BME280;42646;51.910;7.724;2023-02-12T03:48:10;103104.31;;;7.29;100.00
39265;BME280;42646;51.910;7.724;2023-02-12T03:50:46;103106.09;;;7.30;100.00
39265;BME280;42646;51.910;7.724;2023-02-12T03:53:15;103110.47;;;7.29;100.00
39265;BME280;42646;51.910;7.724;2023-02-12T03:55:48;103113.13;;;7.29;100.00
39265;BME280;42646;51.910;7.724;2023-02-12T03:58:23;103114.91;;;7.29;100.00
39265;BME280;42646;51.910;7.724;2023-02-12T04:00:55;103118.41;;;7.31;100.00
39265;BME280;42646;51.910;7.724;2023-02-12T04:03:25;103121.97;;;7.30;100.00
39265;BME280;42646;51.910;7.724;2023-02-12T04:05:55;103120.19;;;7.30;100.00
39265;BME280;42646;51.910;7.724;2023-02-12T04:08:24;103118.44;;;7.29;100.00
39265;BME280;42646;51.910;7.724;2023-02-12T04:11:01;103124.63;;;7.30;100.00
39265;BME280;42646;51.910;7.724;2023-02-12T04:13:37;103121.97;;;7.30;100.00
39265;BME280;42646;51.910;7.724;2023-02-12T04:16:17;103114.03;;;7.30;100.00
39265;BME280;42646;51.910;7.724;2023-02-12T04:18:47;103119.31;;;7.30;100.00
39265;BME280;42646;51.910;7.724;2023-02-12T04:21:30;103123.69;;;7.31;100.00
39265;BME280;42646;51.910;7.724;2023-02-12T04:24:06;103123.69;;;7.31;100.00
39265;BME280;42646;51.910;7.724;2023-02-12T04:26:49;103128.13;;;7.30;100.00
39265;BME280;42646;51.910;7.724;2023-02-12T04:29:25;103129.84;;;7.31;100.00
39265;BME280;42646;51.910;7.724;2023-02-12T04:32:03;103134.28;;;7.31;100.00
39265;BME280;42646;51.910;7.724;2023-02-12T04:34:37;103131.63;;;7.31;100.00
39265;BME280;42646;51.910;7.724;2023-02-12T04:37:12;103130.78;;;7.30;100.00
39265;BME280;42646;51.910;7.724;2023-02-12T04:39:43;103134.28;;;7.31;100.00
39265;BME280;42646;51.910;7.724;2023-02-12T04:42:12;103136.06;;;7.30;100.00
39265;BME280;42646;51.910;7.724;2023-02-12T04:44:42;103138.72;;;7.30;100.00
39265;BME280;42646;51.910;7.724;2023-02-12T04:47:11;103137.78;;;7.31;100.00
39265;BME280;42646;51.910;7.724;2023-02-12T04:49:40;103142.22;;;7.31;100.00
39265;BME280;42646;51.910;7.724;2023-02-12T04:52:09;103147.53;;;7.31;100.00
39265;BME280;42646;51.910;7.724;2023-02-12T04:54:37;103148.44;;;7.30;100.00
39265;BME280;42646;51.910;7.724;2023-02-12T04:57:05;103148.44;;;7.30;100.00
39265;BME280;42646;51.910;7.724;2023-02-12T04:59:32;103148.44;;;7.30;100.00
39265;BME280;42646;51.910;7.724;2023-02-12T05:02:01;103148.44;;;7.30;100.00
39265;BME280;42646;51.910;7.724;2023-02-12T05:04:29;103153.78;;;7.28;100.00
39265;BME280;42646;51.910;7.724;2023-02-12T05:06:56;103153.78;;;7.28;100.00
39265;BME280;42646;51.910;7.724;2023-02-12T05:09:26;103158.22;;;7.28;100.00
39265;BME280;42646;51.910;7.724;2023-02-12T05:11:53;103147.63;;;7.28;100.00
39265;BME280;42646;51.910;7.724;2023-02-12T05:14:23;103159.13;;;7.27;100.00
39265;BME280;42646;51.910;7.724;2023-02-12T05:16:50;103153.84;;;7.27;100.00
39265;BME280;42646;51.910;7.724;2023-02-12T05:19:18;103156.56;;;7.25;100.00
39265;BME280;42646;51.910;7.724;2023-02-12T05:21:48;103160.06;;;7.26;100.00
39265;BME280;42646;51.910;7.724;2023-02-12T05:24:16;103159.19;;;7.25;100.00
39265;BME280;42646;51.910;7.724;2023-02-12T05:26:47;103161.84;;;7.25;100.00
39265;BME280;42646;51.910;7.724;2023-02-12T05:29:19;103162.72;;;7.26;100.00
39265;BME280;42646;51.910;7.724;2023-02-12T05:31:47;103160.97;;;7.25;100.00
39265;BME280;42646;51.910;7.724;2023-02-12T05:34:16;103163.63;;;7.25;100.00
39265;BME280;42646;51.910;7.724;2023-02-12T05:36:43;103167.19;;;7.23;100.00
39265;BME280;42646;51.910;7.724;2023-02-12T05:39:12;103163.63;;;7.25;100.00
39265;BME280;42646;51.910;7.724;2023-02-12T05:41:41;103162.78;;;7.24;100.00
39265;BME280;42646;51.910;7.724;2023-02-12T05:44:11;103161.91;;;7.23;100.00
39265;BME280;42646;51.910;7.724;2023-02-12T05:46:44;103168.06;;;7.24;100.00
39265;BME280;42646;51.910;7.724;2023-02-12T05:49:13;103161.91;;;7.23;100.00
39265;BME280;42646;51.910;7.724;2023-02-12T05:51:45;103158.38;;;7.23;100.00
39265;BME280;42646;51.910;7.724;2023-02-12T05:54:13;103162.81;;;7.22;100.00
39265;BME280;42646;51.910;7.724;2023-02-12T05:56:43;103159.25;;;7.23;100.00
39265;BME280;42646;51.910;7.724;2023-02-12T05:59:14;103161.00;;;7.23;100.00
39265;BME280;42646;51.910;7.724;2023-02-12T06:01:45;103159.25;;;7.23;100.00
39265;BME280;42646;51.910;7.724;2023-02-12T06:04:15;103155.72;;;7.23;100.00
39265;BME280;42646;51.910;7.724;2023-02-12T06:06:45;103169.84;;;7.23;100.00
39265;BME280;42646;51.910;7.724;2023-02-12T06:09:13;103156.63;;;7.23;100.00
39265;BME280;42646;51.910;7.724;2023-02-12T06:11:41;103159.25;;;7.23;100.00
39265;BME280;42646;51.910;7.724;2023-02-12T06:14:14;103157.50;;;7.22;100.00
39265;BME280;42646;51.910;7.724;2023-02-12T06:16:44;103154.84;;;7.22;100.00
39265;BME280;42646;51.910;7.724;2023-02-12T06:19:12;103160.16;;;7.22;100.00
39265;BME280;42646;51.910;7.724;2023-02-12T06:21:40;103164.59;;;7.22;100.00
39265;BME280;42646;51.910;7.724;2023-02-12T06:24:09;103166.38;;;7.21;100.00
39265;BME280;42646;51.910;7.724;2023-02-12T06:26:42;103165.44;;;7.22;100.00
39265;BME280;42646;51.910;7.724;2023-02-12T06:29:13;103170.75;;;7.22;100.00
39265;BME280;42646;51.910;7.724;2023-02-12T06:31:41;103169.03;;;7.21;100.00
39265;BME280;42646;51.910;7.724;2023-02-12T06:34:11;103179.59;;;7.21;100.00
39265;BME280;42646;51.910;7.724;2023-02-12T06:36:45;103176.97;;;7.21;100.00
39265;BME280;42646;51.910;7.724;2023-02-12T06:39:14;103174.31;;;7.21;100.00
39265;BME280;42646;51.910;7.724;2023-02-12T06:41:43;103177.81;;;7.22;100.00
39265;BME280;42646;51.910;7.724;2023-02-12T06:44:12;103184.91;;;7.21;100.00
39265;BME280;42646;51.910;7.724;2023-02-12T06:46:41;103183.13;;;7.22;100.00
39265;BME280;42646;51.910;7.724;2023-02-12T06:49:11;103182.25;;;7.21;100.00
39265;BME280;42646;51.910;7.724;2023-02-12T06:51:39;103191.13;;;7.20;100.00
39265;BME280;42646;51.910;7.724;2023-02-12T06:54:12;103191.13;;;7.20;100.00
39265;BME280;42646;51.910;7.724;2023-02-12T06:56:42;103188.47;;;7.20;100.00
39265;BME280;42646;51.910;7.724;2023-02-12T06:59:14;103195.50;;;7.21;100.00
39265;BME280;42646;51.910;7.724;2023-02-12T07:01:42;103192.84;;;7.21;100.00
39265;BME280;42646;51.910;7.724;2023-02-12T07:04:10;103196.34;;;7.22;100.00
39265;BME280;42646;51.910;7.724;2023-02-12T07:06:39;103196.34;;;7.22;100.00
39265;BME280;42646;51.910;7.724;2023-02-12T07:09:07;103201.66;;;7.22;100.00
39265;BME280;42646;51.910;7.724;2023-02-12T07:11:35;103206.09;;;7.21;100.00
39265;BME280;42646;51.910;7.724;2023-02-12T07:14:04;103208.72;;;7.21;100.00
39265;BME280;42646;51.910;7.724;2023-02-12T07:16:34;103218.41;;;7.22;100.00
39265;BME280;42646;51.910;7.724;2023-02-12T07:19:02;103218.41;;;7.22;100.00
39265;BME280;42646;51.910;7.724;2023-02-12T07:21:55;103214.88;;;7.22;100.00
39265;BME280;42646;51.910;7.724;2023-02-12T07:24:24;103215.75;;;7.22;100.00
39265;BME280;42646;51.910;7.724;2023-02-12T07:26:52;103216.63;;;7.23;100.00
39265;BME280;42646;51.910;7.724;2023-02-12T07:29:22;103215.72;;;7.24;100.00
39265;BME280;42646;51.910;7.724;2023-02-12T07:31:52;103214.78;;;7.25;100.00
39265;BME280;42646;51.910;7.724;2023-02-12T07:34:19;103218.31;;;7.26;100.00
39265;BME280;42646;51.910;7.724;2023-02-12T07:36:48;103226.25;;;7.26;100.00
39265;BME280;42646;51.910;7.724;2023-02-12T07:39:15;103235.84;;;7.28;100.00
39265;BME280;42646;51.910;7.724;2023-02-12T07:41:44;103235.81;;;7.30;100.00
39265;BME280;42646;51.910;7.724;2023-02-12T07:44:12;103240.19;;;7.31;100.00
39265;BME280;42646;51.910;7.724;2023-02-12T07:46:41;103234.84;;;7.32;100.00
39265;BME280;42646;51.910;7.724;2023-02-12T07:49:16;103242.72;;;7.34;100.00
39265;BME280;42646;51.910;7.724;2023-02-12T07:51:49;103232.09;;;7.35;100.00
39265;BME280;42646;51.910;7.724;2023-02-12T07:54:17;103243.50;;;7.37;100.00
39265;BME280;42646;51.910;7.724;2023-02-12T07:57:10;103243.44;;;7.39;100.00
39265;BME280;42646;51.910;7.724;2023-02-12T07:59:38;103241.63;;;7.39;100.00
39265;BME280;42646;51.910;7.724;2023-02-12T08:02:05;103246.00;;;7.40;100.00
39265;BME280;42646;51.910;7.724;2023-02-12T08:04:36;103251.16;;;7.45;100.00
39265;BME280;42646;51.910;7.724;2023-02-12T08:07:28;103257.31;;;7.45;100.00
39265;BME280;42646;51.910;7.724;2023-02-12T08:09:59;103250.19;;;7.47;100.00
39265;BME280;42646;51.910;7.724;2023-02-12T08:12:27;103248.41;;;7.48;100.00
39265;BME280;42646;51.910;7.724;2023-02-12T08:14:55;103257.06;;;7.53;100.00
39265;BME280;42646;51.910;7.724;2023-02-12T08:17:24;103253.53;;;7.53;100.00
39265;BME280;42646;51.910;7.724;2023-02-12T08:19:53;103254.41;;;7.53;100.00
39265;BME280;42646;51.910;7.724;2023-02-12T08:22:22;103269.25;;;7.57;100.00
39265;BME280;42646;51.910;7.724;2023-02-12T08:24:50;103264.78;;;7.59;100.00
39265;BME280;42646;51.910;7.724;2023-02-12T08:27:44;103267.25;;;7.64;100.00
39265;BME280;42646;51.910;7.724;2023-02-12T08:30:16;103268.94;;;7.66;100.00
39265;BME280;42646;51.910;7.724;2023-02-12T08:32:47;103272.31;;;7.70;100.00
39265;BME280;42646;51.910;7.724;2023-02-12T08:35:17;103281.91;;;7.74;100.00
39265;BME280;42646;51.910;7.724;2023-02-12T08:37:47;103274.72;;;7.78;100.00
39265;BME280;42646;51.910;7.724;2023-02-12T08:40:15;103284.28;;;7.82;100.00
39265;BME280;42646;51.910;7.724;2023-02-12T08:42:44;103279.78;;;7.84;100.00
39265;BME280;42646;51.910;7.724;2023-02-12T08:45:11;103280.53;;;7.87;100.00
39265;BME280;42646;51.910;7.724;2023-02-12T08:47:39;103283.94;;;7.91;100.00
39265;BME280;42646;51.910;7.724;2023-02-12T08:50:08;103282.97;;;7.93;100.00
39265;BME280;42646;51.910;7.724;2023-02-12T08:52:37;103287.28;;;7.96;100.00
39265;BME280;42646;51.910;7.724;2023-02-12T08:55:09;103281.88;;;7.99;100.00
39265;BME280;42646;51.910;7.724;2023-02-12T08:57:37;103282.69;;;8.01;100.00
39265;BME280;42646;51.910;7.724;2023-02-12T09:00:07;103279.91;;;8.04;100.00
39265;BME280;42646;51.910;7.724;2023-02-12T09:02:34;103290.41;;;8.07;100.00
39265;BME280;42646;51.910;7.724;2023-02-12T09:05:03;103293.00;;;8.09;100.00
39265;BME280;42646;51.910;7.724;2023-02-12T09:07:30;103293.81;;;8.11;100.00
39265;BME280;42646;51.910;7.724;2023-02-12T09:10:00;103291.06;;;8.14;100.00
39265;BME280;42646;51.910;7.724;2023-02-12T09:12:28;103291.78;;;8.17;100.00
39265;BME280;42646;51.910;7.724;2023-02-12T09:14:58;103288.16;;;8.20;100.00
39265;BME280;42646;51.910;7.724;2023-02-12T09:17:26;103297.72;;;8.24;100.00
39265;BME280;42646;51.910;7.724;2023-02-12T09:19:55;103293.16;;;8.27;100.00
39265;BME280;42646;51.910;7.724;2023-02-12T09:22:23;103292.31;;;8.27;100.00
39265;BME280;42646;51.910;7.724;2023-02-12T09:24:50;103304.41;;;8.34;100.00
39265;BME280;42646;51.910;7.724;2023-02-12T09:27:21;103305.25;;;8.35;100.00
39265;BME280;42646;51.910;7.724;2023-02-12T09:29:49;103299.03;;;8.37;100.00
39265;BME280;42646;51.910;7.724;2023-02-12T09:32:17;103299.72;;;8.42;100.00
39265;BME280;42646;51.910;7.724;2023-02-12T09:34:45;103294.22;;;8.47;100.00
39265;BME280;42646;51.910;7.724;2023-02-12T09:37:15;103295.72;;;8.54;100.00
39265;BME280;42646;51.910;7.724;2023-02-12T09:39:46;103299.16;;;8.56;100.00
39265;BME280;42646;51.910;7.724;2023-02-12T09:42:24;103288.56;;;8.56;100.00
39265;BME280;42646;51.910;7.724;2023-02-12T09:45:06;103299.91;;;8.60;100.00
39265;BME280;42646;51.910;7.724;2023-02-12T09:47:44;103299.84;;;8.61;100.00
39265;BME280;42646;51.910;7.724;2023-02-12T09:50:41;103302.28;;;8.67;100.00
39265;BME280;42646;51.910;7.724;2023-02-12T09:53:12;103298.53;;;8.71;100.00
39265;BME280;42646;51.910;7.724;2023-02-12T09:55:43;103303.75;;;8.74;100.00
39265;BME280;42646;51.910;7.724;2023-02-12T09:58:14;103300.22;;;8.74;100.00
39265;BME280;42646;51.910;7.724;2023-02-12T10:00:45;103303.75;;;8.74;100.00
39265;BME280;42646;51.910;7.724;2023-02-12T10:03:15;103301.84;;;8.78;100.00
39265;BME280;42646;51.910;7.724;2023-02-12T10:05:48;103302.72;;;8.78;100.00
39265;BME280;42646;51.910;7.724;2023-02-12T10:08:31;103314.00;;;8.83;100.00
39265;BME280;42646;51.910;7.724;2023-02-12T10:11:21;103309.50;;;8.86;100.00
39265;BME280;42646;51.910;7.724;2023-02-12T10:14:04;103312.94;;;8.88;100.00
39265;BME280;42646;51.910;7.724;2023-02-12T10:16:50;103318.94;;;8.93;100.00
39265;BME280;42646;51.910;7.724;2023-02-12T10:19:30;103313.44;;;8.97;100.00
39265;BME280;42646;51.910;7.724;2023-02-12T10:22:08;103313.38;;;8.99;100.00
39265;BME280;42646;51.910;7.724;2023-02-12T10:25:01;103314.06;;;9.04;100.00
39265;BME280;42646;51.910;7.724;2023-02-12T10:27:37;103317.56;;;9.04;100.00
39265;BME280;42646;51.910;7.724;2023-02-12T10:30:19;103314.72;;;9.09;100.00
39265;BME280;42646;51.910;7.724;2023-02-12T10:32:58;103315.41;;;9.14;100.00
39265;BME280;42646;51.910;7.724;2023-02-12T10:35:30;103310.78;;;9.19;100.00
39265;BME280;42646;51.910;7.724;2023-02-12T10:38:04;103307.97;;;9.22;100.00
39265;BME280;42646;51.910;7.724;2023-02-12T10:40:35;103301.63;;;9.26;100.00
39265;BME280;42646;51.910;7.724;2023-02-12T10:43:10;103306.59;;;9.34;100.00
39265;BME280;42646;51.910;7.724;2023-02-12T10:45:42;103297.56;;;9.38;100.00
39265;BME280;42646;51.910;7.724;2023-02-12T10:48:14;103297.50;;;9.40;100.00
39265;BME280;42646;51.910;7.724;2023-02-12T10:51:24;103299.97;;;9.44;99.79
39265;BME280;42646;51.910;7.724;2023-02-12T10:53:55;103304.41;;;9.44;99.44
39265;BME280;42646;51.910;7.724;2023-02-12T10:56:25;103306.94;;;9.47;99.30
39265;BME280;42646;51.910;7.724;2023-02-12T10:58:55;103304.06;;;9.51;99.06
39265;BME280;42646;51.910;7.724;2023-02-12T11:01:28;103302.09;;;9.56;98.39
39265;BME280;42646;51.910;7.724;2023-02-12T11:03:58;103300.22;;;9.58;98.14
39265;BME280;42646;51.910;7.724;2023-02-12T11:06:29;103293.91;;;9.61;98.18
39265;BME280;42646;51.910;7.724;2023-02-12T11:08:58;103291.00;;;9.67;98.29
39265;BME280;42646;51.910;7.724;2023-02-12T11:11:27;103291.69;;;9.71;98.37
39265;BME280;42646;51.910;7.724;2023-02-12T11:13:57;103295.19;;;9.73;98.27
39265;BME280;42646;51.910;7.724;2023-02-12T11:17:23;103294.09;;;9.77;97.46
39265;BME280;42646;51.910;7.724;2023-02-12T11:20:02;103288.66;;;9.80;96.87
39265;BME280;42646;51.910;7.724;2023-02-12T11:22:30;103293.03;;;9.81;96.29
39265;BME280;42646;51.910;7.724;2023-02-12T11:25:09;103294.63;;;9.85;95.78
39265;BME280;42646;51.910;7.724;2023-02-12T11:28:14;103293.53;;;9.89;95.06
39265;BME280;42646;51.910;7.724;2023-02-12T11:30:51;103289.16;;;9.88;95.42
39265;BME280;42646;51.910;7.724;2023-02-12T11:33:26;103281.97;;;9.90;95.40
39265;BME280;42646;51.910;7.724;2023-02-12T11:35:57;103286.09;;;9.97;95.75
39265;BME280;42646;51.910;7.724;2023-02-12T11:38:30;103281.44;;;10.02;96.70
39265;BME280;42646;51.910;7.724;2023-02-12T11:41:03;103281.06;;;10.10;96.79
39265;BME280;42646;51.910;7.724;2023-02-12T11:43:35;103276.41;;;10.15;96.52
39265;BME280;42646;51.910;7.724;2023-02-12T11:46:06;103276.25;;;10.18;95.89
39265;BME280;42646;51.910;7.724;2023-02-12T11:48:39;103267.19;;;10.22;95.81
39265;BME280;42646;51.910;7.724;2023-02-12T11:51:18;103270.53;;;10.27;95.25
39265;BME280;42646;51.910;7.724;2023-02-12T11:54:17;103264.28;;;10.28;94.46
39265;BME280;42646;51.910;7.724;2023-02-12T11:56:46;103260.84;;;10.26;93.52
39265;BME280;42646;51.910;7.724;2023-02-12T11:59:30;103259.91;;;10.27;93.42
39265;BME280;42646;51.910;7.724;2023-02-12T12:02:02;103252.63;;;10.31;93.17
39265;BME280;42646;51.910;7.724;2023-02-12T12:04:33;103252.63;;;10.31;92.67
39265;BME280;42646;51.910;7.724;2023-02-12T12:07:11;103254.38;;;10.32;92.50
39265;BME280;42646;51.910;7.724;2023-02-12T12:09:45;103255.22;;;10.32;92.61
39265;BME280;42646;51.910;7.724;2023-02-12T12:12:18;103246.31;;;10.33;92.49
39265;BME280;42646;51.910;7.724;2023-02-12T12:14:49;103255.28;;;10.31;92.01
39265;BME280;42646;51.910;7.724;2023-02-12T12:17:41;103245.50;;;10.31;91.92
39265;BME280;42646;51.910;7.724;2023-02-12T12:20:32;103238.41;;;10.32;92.10
39265;BME280;42646;51.910;7.724;2023-02-12T12:23:07;103235.66;;;10.33;91.69
39265;BME280;42646;51.910;7.724;2023-02-12T12:25:42;103234.63;;;10.36;92.06
39265;BME280;42646;51.910;7.724;2023-02-12T12:28:27;103237.31;;;10.36;92.18
39265;BME280;42646;51.910;7.724;2023-02-12T12:31:03;103235.59;;;10.35;91.59
39265;BME280;42646;51.910;7.724;2023-02-12T12:33:40;103227.31;;;10.41;90.99
39265;BME280;42646;51.910;7.724;2023-02-12T12:36:33;103223.00;;;10.38;91.02
39265;BME280;42646;51.910;7.724;2023-02-12T12:39:15;103228.09;;;10.43;91.00
39265;BME280;42646;51.910;7.724;2023-02-12T12:42:06;103218.34;;;10.43;90.77
39265;BME280;42646;51.910;7.724;2023-02-12T12:44:52;103217.38;;;10.45;91.08
39265;BME280;42646;51.910;7.724;2023-02-12T12:47:36;103216.28;;;10.49;91.24
39265;BME280;42646;51.910;7.724;2023-02-12T12:50:21;103214.34;;;10.52;91.64
39265;BME280;42646;51.910;7.724;2023-02-12T12:53:10;103221.25;;;10.56;92.28
39265;BME280;42646;51.910;7.724;2023-02-12T12:56:02;103209.50;;;10.60;92.96
39265;BME280;42646;51.910;7.724;2023-02-12T12:58:43;103204.03;;;10.63;93.21
39265;BME280;42646;51.910;7.724;2023-02-12T13:01:40;103202.31;;;10.62;92.21
39265;BME280;42646;51.910;7.724;2023-02-12T13:04:34;103197.13;;;10.59;91.12
39265;BME280;42646;51.910;7.724;2023-02-12T13:07:12;103195.50;;;10.57;90.93
39265;BME280;42646;51.910;7.724;2023-02-12T13:09:59;103189.22;;;10.58;90.91
39265;BME280;42646;51.910;7.724;2023-02-12T13:12:41;103183.81;;;10.59;91.08
39265;BME280;42646;51.910;7.724;2023-02-12T13:15:18;103183.91;;;10.58;90.89
39265;BME280;42646;51.910;7.724;2023-02-12T13:17:54;103183.81;;;10.59;91.03
39265;BME280;42646;51.910;7.724;2023-02-12T13:20:36;103183.72;;;10.61;90.98
39265;BME280;42646;51.910;7.724;2023-02-12T13:23:13;103178.41;;;10.61;90.53
39265;BME280;42646;51.910;7.724;2023-02-12T13:25:51;103176.00;;;10.56;89.00
39265;BME280;42646;51.910;7.724;2023-02-12T13:28:30;103173.56;;;10.52;88.81